Time;durP1;ratioP1;P1;durP2;ratioP2;P2;SDS_P1;SDS_P2;PMS_P1;PMS_P2;Temp;Humidity;BMP_temperature;BMP_pressure;BME280_temperature;BME280_humidity;BME280_pressure;Samples;Min_cycle;Max_cycle;Signal;HPM_P1;HPM_P2
2023/06/29 00:01:11;;;;;;;3.37;2.40;;;19.60;85.60;;;;;;10229685;28;20224;-69
2023/06/29 00:06:11;;;;;;;3.37;2.60;;;19.60;85.40;;;;;;10216518;28;20220;-70
2023/06/29 00:11:12;;;;;;;2.73;2.53;;;19.60;85.40;;;;;;10224678;28;20235;-72
2023/06/29 00:16:12;;;;;;;5.27;2.80;;;19.50;85.60;;;;;;10223978;28;20769;-70
2023/06/29 00:21:13;;;;;;;4.70;2.90;;;19.50;86.10;;;;;;10235758;28;20318;-67
2023/06/29 00:26:13;;;;;;;3.17;2.57;;;19.40;86.50;;;;;;10230751;28;20234;-68
2023/06/29 00:31:14;;;;;;;2.57;2.27;;;19.30;86.90;;;;;;10215336;28;20595;-69
2023/06/29 00:36:15;;;;;;;3.53;2.70;;;19.30;87.20;;;;;;10228332;28;20238;-70
2023/06/29 00:41:15;;;;;;;3.73;2.70;;;19.20;87.40;;;;;;10219251;28;20223;-68
2023/06/29 00:46:20;;;;;;;3.50;2.77;;;19.20;87.50;;;;;;10222538;28;20310;-71
2023/06/29 00:51:21;;;;;;;3.83;2.90;;;19.20;87.60;;;;;;10221774;28;20589;-73
2023/06/29 00:56:21;;;;;;;3.90;2.93;;;19.20;87.90;;;;;;10221684;28;20236;-75
2023/06/29 01:01:22;;;;;;;5.00;3.10;;;19.10;88.00;;;;;;10214758;28;20254;-71
2023/06/29 01:06:30;;;;;;;4.90;4.40;;;19.10;88.40;;;;;;10222221;28;20235;-71
2023/06/29 01:11:37;;;;;;;4.30;3.30;;;19.00;88.40;;;;;;10222361;28;20259;-71
2023/06/29 01:16:38;;;;;;;3.33;2.83;;;19.00;88.40;;;;;;10230186;28;20315;-71
2023/06/29 01:21:50;;;;;;;3.30;2.70;;;19.00;88.80;;;;;;10228589;28;20237;-73
2023/06/29 01:26:51;;;;;;;4.30;3.40;;;18.90;88.70;;;;;;10235701;28;20231;-73
2023/06/29 01:31:59;;;;;;;4.73;3.53;;;18.80;89.10;;;;;;10234212;28;20247;-70
2023/06/29 01:37:10;;;;;;;4.83;2.93;;;18.70;89.20;;;;;;10229508;28;20251;-72
2023/06/29 01:42:12;;;;;;;4.80;3.27;;;18.60;90.00;;;;;;10228079;28;20239;-71
2023/06/29 01:47:13;;;;;;;2.73;2.53;;;18.50;90.20;;;;;;10234542;28;20231;-71
2023/06/29 01:52:14;;;;;;;4.00;3.17;;;18.50;90.30;;;;;;10234985;28;20231;-71
2023/06/29 01:57:14;;;;;;;6.17;3.17;;;18.40;90.40;;;;;;10226016;28;20240;-69
2023/06/29 02:02:15;;;;;;;3.20;2.90;;;18.30;90.70;;;;;;10228509;28;20219;-69
2023/06/29 02:07:15;;;;;;;3.43;2.97;;;18.30;91.00;;;;;;10233845;28;20342;-70
2023/06/29 02:12:16;;;;;;;5.60;3.20;;;18.20;91.00;;;;;;10218825;28;20267;-74
2023/06/29 02:17:17;;;;;;;10.10;3.70;;;18.10;91.00;;;;;;10236780;28;20231;-63
2023/06/29 02:22:17;;;;;;;5.67;3.40;;;18.00;91.50;;;;;;10234199;28;20266;-64
2023/06/29 02:27:18;;;;;;;4.10;2.93;;;17.90;92.00;;;;;;10218044;28;20285;-62
2023/06/29 02:32:18;;;;;;;8.17;3.17;;;17.80;92.40;;;;;;10225334;28;20223;-69
2023/06/29 02:37:19;;;;;;;4.50;3.00;;;17.80;92.70;;;;;;10221731;28;20327;-70
2023/06/29 02:42:21;;;;;;;5.57;3.30;;;17.70;93.10;;;;;;10226326;28;20228;-69
2023/06/29 02:47:25;;;;;;;7.37;3.43;;;17.70;93.30;;;;;;10224861;28;20227;-69
2023/06/29 02:52:25;;;;;;;4.70;3.20;;;17.70;93.60;;;;;;10225859;28;20232;-69
2023/06/29 02:57:26;;;;;;;3.80;2.87;;;17.60;93.80;;;;;;10231266;28;20342;-69
2023/06/29 03:02:26;;;;;;;8.00;3.87;;;17.50;94.20;;;;;;10218841;28;20259;-69
2023/06/29 03:07:27;;;;;;;5.17;3.20;;;17.60;94.50;;;;;;10237523;28;20219;-69
2023/06/29 03:12:28;;;;;;;4.50;3.47;;;17.50;94.60;;;;;;10231435;28;20223;-69
2023/06/29 03:17:28;;;;;;;6.30;3.20;;;17.50;94.90;;;;;;10231551;28;20288;-68
2023/06/29 03:22:29;;;;;;;3.97;3.17;;;17.40;95.10;;;;;;10246523;28;20230;-70
2023/06/29 03:27:29;;;;;;;4.13;3.07;;;17.40;95.10;;;;;;10218421;28;20698;-69
2023/06/29 03:32:30;;;;;;;7.40;3.50;;;17.40;95.20;;;;;;10223779;28;20227;-68
2023/06/29 03:37:30;;;;;;;7.80;4.20;;;17.50;95.30;;;;;;10228687;28;20483;-70
2023/06/29 03:42:31;;;;;;;8.13;4.23;;;17.60;95.20;;;;;;10217916;28;20651;-68
2023/06/29 03:47:32;;;;;;;9.93;4.97;;;17.70;95.20;;;;;;10231956;28;20230;-68
2023/06/29 03:52:32;;;;;;;13.23;5.87;;;17.80;95.10;;;;;;10224601;28;20223;-68
2023/06/29 03:57:33;;;;;;;13.70;5.70;;;17.80;95.00;;;;;;10226910;28;20587;-71
2023/06/29 04:02:33;;;;;;;12.57;5.70;;;17.90;95.00;;;;;;10217998;28;20224;-70
2023/06/29 04:07:34;;;;;;;22.07;7.83;;;18.10;94.80;;;;;;10223480;28;20223;-71
2023/06/29 04:12:35;;;;;;;10.97;5.83;;;18.20;94.60;;;;;;10217636;28;20227;-71
2023/06/29 04:17:35;;;;;;;12.07;4.57;;;18.40;94.30;;;;;;10236534;28;20269;-71
2023/06/29 04:22:36;;;;;;;9.60;4.60;;;18.60;93.90;;;;;;10222668;28;20240;-69
2023/06/29 04:27:37;;;;;;;13.57;5.37;;;18.70;93.60;;;;;;10236140;28;20314;-70
2023/06/29 04:32:38;;;;;;;9.67;4.03;;;18.80;93.40;;;;;;10229184;28;20215;-70
2023/06/29 04:37:42;;;;;;;11.47;4.43;;;18.90;93.00;;;;;;10227300;28;20263;-70
2023/06/29 04:42:45;;;;;;;6.97;3.90;;;19.20;92.70;;;;;;10221762;28;20233;-69
2023/06/29 04:47:49;;;;;;;6.37;3.40;;;19.70;91.60;;;;;;10226618;28;20223;-68
2023/06/29 04:52:50;;;;;;;7.40;4.57;;;19.80;91.10;;;;;;10228417;28;20646;-69
2023/06/29 04:57:51;;;;;;;10.70;5.10;;;19.80;90.70;;;;;;10233694;28;20243;-71
2023/06/29 05:02:52;;;;;;;12.60;4.90;;;19.90;90.70;;;;;;10225990;28;20302;-70
2023/06/29 05:07:52;;;;;;;11.03;3.93;;;20.00;90.60;;;;;;10235801;28;20307;-69
2023/06/29 05:12:53;;;;;;;8.77;3.60;;;22.00;84.40;;;;;;10237555;28;20231;-71
2023/06/29 05:17:54;;;;;;;12.70;3.60;;;25.00;73.40;;;;;;10241568;28;20237;-71
2023/06/29 05:22:54;;;;;;;8.50;4.00;;;27.50;63.50;;;;;;10228498;28;20724;-72
2023/06/29 05:27:55;;;;;;;9.47;3.13;;;29.20;57.30;;;;;;10234490;28;20220;-71
2023/06/29 05:32:55;;;;;;;11.73;3.70;;;30.10;54.20;;;;;;10236702;28;20222;-71
2023/06/29 05:37:56;;;;;;;8.83;3.37;;;30.10;53.20;;;;;;10225494;28;20754;-70
2023/06/29 05:42:56;;;;;;;9.03;3.20;;;30.90;51.50;;;;;;10229651;28;20299;-64
2023/06/29 05:47:57;;;;;;;11.83;3.27;;;31.20;51.00;;;;;;10230803;28;20759;-64
2023/06/29 05:52:58;;;;;;;7.23;3.20;;;32.30;49.60;;;;;;10226056;28;20271;-64
2023/06/29 05:57:58;;;;;;;8.77;3.00;;;33.00;46.70;;;;;;10237190;28;20693;-64
2023/06/29 06:03:00;;;;;;;7.33;3.03;;;33.20;46.70;;;;;;10231066;28;20702;-63
2023/06/29 06:08:01;;;;;;;6.30;2.60;;;31.90;48.20;;;;;;10230578;28;20221;-63
2023/06/29 06:13:02;;;;;;;8.43;3.30;;;33.30;46.90;;;;;;10226186;28;20215;-63
2023/06/29 06:18:03;;;;;;;5.10;2.57;;;31.70;47.50;;;;;;10233997;28;20234;-64
2023/06/29 06:23:04;;;;;;;7.33;2.80;;;31.00;49.70;;;;;;10238155;28;20604;-64
2023/06/29 06:28:04;;;;;;;5.60;2.70;;;30.00;51.40;;;;;;10245338;28;20224;-63
2023/06/29 06:33:05;;;;;;;4.40;2.10;;;30.00;52.00;;;;;;10254477;28;20237;-65
2023/06/29 06:38:06;;;;;;;5.60;2.43;;;30.50;50.20;;;;;;10256558;28;20636;-71
2023/06/29 06:43:07;;;;;;;3.87;1.90;;;32.40;47.20;;;;;;10268972;28;20572;-70
2023/06/29 06:48:07;;;;;;;3.87;2.20;;;34.00;45.50;;;;;;10245472;28;20223;-71
2023/06/29 06:53:08;;;;;;;7.23;1.97;;;35.50;42.20;;;;;;10252760;28;20224;-71
2023/06/29 06:58:09;;;;;;;6.67;2.20;;;37.30;40.10;;;;;;10252582;28;20239;-71
2023/06/29 07:03:09;;;;;;;6.93;2.63;;;38.40;38.00;;;;;;10250666;28;20630;-70
2023/06/29 07:08:10;;;;;;;5.30;2.30;;;39.30;37.20;;;;;;10225540;28;20706;-69
2023/06/29 07:13:11;;;;;;;4.10;1.97;;;40.20;35.40;;;;;;10246898;28;20226;-69
2023/06/29 07:18:11;;;;;;;4.20;2.30;;;40.40;34.90;;;;;;10237384;28;20231;-70
2023/06/29 07:23:12;;;;;;;2.80;2.17;;;40.50;34.90;;;;;;10232817;28;20230;-72
2023/06/29 07:28:13;;;;;;;5.27;2.57;;;39.60;34.80;;;;;;10234734;28;20606;-71
2023/06/29 07:33:13;;;;;;;7.33;2.43;;;39.20;35.80;;;;;;10249776;28;20223;-70
2023/06/29 07:38:14;;;;;;;4.07;2.23;;;40.00;35.00;;;;;;10228004;28;20223;-71
2023/06/29 07:43:21;;;;;;;6.73;2.33;;;39.70;34.30;;;;;;10473383;28;20585;-72
2023/06/29 07:48:22;;;;;;;3.13;1.93;;;39.80;35.10;;;;;;10432909;28;20209;-71
2023/06/29 07:53:22;;;;;;;4.13;2.17;;;41.80;33.00;;;;;;10421241;28;20271;-69
2023/06/29 07:58:23;;;;;;;4.63;1.95;;;42.20;31.70;;;;;;10425835;28;20213;-70
2023/06/29 08:03:23;;;;;;;4.63;2.08;;;42.60;31.70;;;;;;10421837;28;20212;-69
2023/06/29 08:08:28;;;;;;;5.90;1.98;;;43.60;30.40;;;;;;10428756;28;20638;-74
2023/06/29 08:13:28;;;;;;;4.47;2.10;;;43.00;30.60;;;;;;10420897;28;20213;-69
2023/06/29 08:18:29;;;;;;;5.47;2.15;;;44.50;29.70;;;;;;10418113;28;20243;-70
2023/06/29 08:23:34;;;;;;;7.22;1.80;;;44.20;29.10;;;;;;10430181;28;20295;-70
2023/06/29 08:28:34;;;;;;;12.77;2.33;;;42.80;30.20;;;;;;10422263;28;20255;-70
2023/06/29 08:33:35;;;;;;;2.13;1.40;;;41.20;31.70;;;;;;10413478;28;20240;-71
2023/06/29 08:38:36;;;;;;;2.63;1.27;;;39.90;33.20;;;;;;10406112;28;20719;-71
2023/06/29 08:43:36;;;;;;;2.40;1.40;;;39.40;33.80;;;;;;10394362;28;20214;-72
2023/06/29 08:48:41;;;;;;;3.80;1.47;;;39.40;33.70;;;;;;10405461;28;20695;-73
2023/06/29 08:53:43;;;;;;;5.73;1.47;;;38.60;35.10;;;;;;10401461;28;20216;-71
2023/06/29 08:58:44;;;;;;;1.83;1.50;;;39.80;34.20;;;;;;10393151;28;20299;-70
2023/06/29 09:03:45;;;;;;;9.77;1.87;;;41.30;32.60;;;;;;10397656;28;20279;-73
2023/06/29 09:08:46;;;;;;;6.40;1.88;;;43.10;30.30;;;;;;10403943;28;20355;-74
2023/06/29 09:13:49;;;;;;;3.17;1.77;;;42.80;30.40;;;;;;10391666;28;20223;-73
2023/06/29 09:18:54;;;;;;;2.25;1.80;;;42.00;30.60;;;;;;10397721;28;20237;-73
2023/06/29 09:23:58;;;;;;;17.77;2.25;;;41.60;31.50;;;;;;10391385;28;20209;-73
2023/06/29 09:28:59;;;;;;;1.70;1.38;;;43.50;30.00;;;;;;10390630;28;20252;-74
2023/06/29 09:34:20;;;;;;;1.45;1.20;;;45.00;28.80;;;;;;10397085;28;20221;-73
2023/06/29 09:39:21;;;;;;;1.92;1.60;;;45.10;28.70;;;;;;10384304;28;20229;-73
2023/06/29 09:44:26;;;;;;;2.17;1.67;;;46.00;28.40;;;;;;10414149;28;20282;-73
2023/06/29 09:49:26;;;;;;;3.65;1.52;;;44.70;28.80;;;;;;10384644;28;20216;-72
2023/06/29 09:54:27;;;;;;;2.42;1.58;;;44.80;28.60;;;;;;10393045;28;20246;-74
2023/06/29 09:59:28;;;;;;;2.20;1.60;;;42.50;29.90;;;;;;10389689;28;20228;-74
2023/06/29 10:04:28;;;;;;;1.97;1.30;;;40.50;31.70;;;;;;10389374;28;20236;-73
2023/06/29 10:09:29;;;;;;;4.03;1.70;;;40.30;33.00;;;;;;10384660;28;20214;-75
2023/06/29 10:14:32;;;;;;;1.83;1.53;;;41.00;31.60;;;;;;10390150;28;20927;-74
2023/06/29 10:19:35;;;;;;;4.83;1.63;;;40.80;31.80;;;;;;10383355;28;20253;-74
2023/06/29 10:24:45;;;;;;;5.07;1.70;;;39.60;33.50;;;;;;10387309;28;20216;-74
2023/06/29 10:29:48;;;;;;;16.60;2.23;;;39.00;33.70;;;;;;10377888;28;20300;-74
2023/06/29 10:35:01;;;;;;;3.60;1.50;;;39.10;33.60;;;;;;10392254;28;20278;-75
2023/06/29 10:40:06;;;;;;;8.10;1.97;;;38.80;34.20;;;;;;10381469;28;20264;-75
2023/06/29 10:45:22;;;;;;;2.13;1.40;;;38.30;34.90;;;;;;10390614;28;20275;-75
2023/06/29 10:50:30;;;;;;;3.33;1.90;;;37.40;36.00;;;;;;10382168;28;20255;-74
2023/06/29 10:55:51;;;;;;;4.23;2.03;;;36.30;37.90;;;;;;10387074;28;20189;-73
2023/06/29 11:00:53;;;;;;;13.37;3.03;;;35.60;37.90;;;;;;10391842;28;20232;-73
2023/06/29 11:05:54;;;;;;;7.90;2.50;;;35.10;39.00;;;;;;10394241;28;20220;-73
2023/06/29 11:11:13;;;;;;;6.77;2.77;;;34.60;40.30;;;;;;10383085;28;20308;-72
2023/06/29 11:16:14;;;;;;;2.97;2.37;;;34.10;41.70;;;;;;10387387;28;20220;-73
2023/06/29 11:21:15;;;;;;;8.43;2.90;;;34.20;40.90;;;;;;10380748;28;20232;-74
2023/06/29 11:26:16;;;;;;;61.90;7.30;;;33.70;41.90;;;;;;10397535;28;20219;-73
2023/06/29 11:31:18;;;;;;;8.93;4.40;;;33.30;42.20;;;;;;10388832;28;20227;-72
2023/06/29 11:36:29;;;;;;;7.43;2.73;;;32.50;44.10;;;;;;10386531;28;20278;-72
2023/06/29 11:41:31;;;;;;;7.87;2.63;;;31.90;45.00;;;;;;10384693;28;20256;-75
2023/06/29 11:46:35;;;;;;;5.30;2.23;;;31.30;46.20;;;;;;10397612;28;20217;-73
2023/06/29 11:51:38;;;;;;;2.30;2.10;;;30.60;47.30;;;;;;10387902;28;20236;-73
2023/06/29 11:56:42;;;;;;;5.93;2.60;;;30.20;48.00;;;;;;10389124;28;20229;-74
2023/06/29 12:01:46;;;;;;;4.07;2.20;;;29.90;49.20;;;;;;10394659;28;20229;-75
2023/06/29 12:06:51;;;;;;;8.57;2.70;;;29.40;49.60;;;;;;10382983;28;20225;-75
2023/06/29 12:11:56;;;;;;;4.27;2.60;;;29.00;50.40;;;;;;10390593;28;20221;-71
2023/06/29 12:16:57;;;;;;;7.33;2.70;;;28.70;52.70;;;;;;10395372;28;20217;-76
2023/06/29 12:21:58;;;;;;;7.47;3.07;;;28.70;53.90;;;;;;10391492;28;20274;-74
2023/06/29 12:26:58;;;;;;;5.23;3.10;;;28.70;55.10;;;;;;10390554;28;20244;-76
2023/06/29 12:32:00;;;;;;;5.60;3.00;;;28.70;55.90;;;;;;10387509;28;20283;-76
2023/06/29 12:37:02;;;;;;;9.80;3.17;;;28.70;55.40;;;;;;10393565;28;20221;-74
2023/06/29 12:42:03;;;;;;;8.53;2.97;;;28.60;56.20;;;;;;10403220;28;20223;-75
2023/06/29 12:47:03;;;;;;;3.30;2.40;;;28.50;58.10;;;;;;10403426;28;20266;-71
2023/06/29 12:52:04;;;;;;;6.07;2.90;;;28.40;58.50;;;;;;10397812;28;20235;-73
2023/06/29 12:57:05;;;;;;;5.53;2.67;;;28.40;58.70;;;;;;10392132;28;20224;-76
2023/06/29 13:02:07;;;;;;;6.10;2.77;;;28.30;57.30;;;;;;10396119;28;20761;-73
2023/06/29 13:07:08;;;;;;;2.90;2.40;;;28.30;56.40;;;;;;10401141;28;20221;-75
2023/06/29 13:12:09;;;;;;;3.53;2.60;;;28.90;55.20;;;;;;10393953;28;20237;-75
2023/06/29 13:17:10;;;;;;;4.27;3.10;;;29.50;53.40;;;;;;10393509;28;20679;-72
2023/06/29 13:22:11;;;;;;;4.97;2.87;;;29.70;51.90;;;;;;10391646;28;20263;-75
2023/06/29 13:27:12;;;;;;;5.63;2.90;;;30.10;50.80;;;;;;10390380;28;20715;-73
2023/06/29 13:32:13;;;;;;;3.33;2.50;;;30.60;50.10;;;;;;10384075;28;20312;-75
2023/06/29 13:37:14;;;;;;;9.70;3.10;;;30.90;49.60;;;;;;10396173;28;20229;-72
2023/06/29 13:42:16;;;;;;;3.10;2.80;;;31.20;49.30;;;;;;10405241;28;20231;-76
2023/06/29 13:47:18;;;;;;;4.87;3.00;;;31.60;48.20;;;;;;10387350;28;20345;-72
2023/06/29 13:52:19;;;;;;;6.93;3.67;;;31.60;47.50;;;;;;10382360;28;20506;-75
2023/06/29 13:57:20;;;;;;;3.57;3.10;;;31.30;47.60;;;;;;10390839;28;20220;-74
2023/06/29 14:02:20;;;;;;;4.70;3.40;;;31.00;48.20;;;;;;10396928;28;20228;-72
2023/06/29 14:07:22;;;;;;;5.07;3.20;;;30.70;49.10;;;;;;10402926;28;20224;-71
2023/06/29 14:12:23;;;;;;;12.97;3.40;;;30.50;50.10;;;;;;10382772;28;20232;-72
2023/06/29 14:17:24;;;;;;;6.53;3.33;;;30.40;49.30;;;;;;10392374;28;20684;-72
2023/06/29 14:22:24;;;;;;;5.40;3.17;;;30.40;49.50;;;;;;10391737;28;20235;-75
2023/06/29 14:27:25;;;;;;;4.23;2.90;;;30.70;49.00;;;;;;10381437;28;20223;-74
2023/06/29 14:32:26;;;;;;;3.67;2.90;;;31.20;48.00;;;;;;10381503;28;20248;-75
2023/06/29 14:37:28;;;;;;;8.00;3.60;;;31.50;47.40;;;;;;10398611;28;20231;-74
2023/06/29 14:42:30;;;;;;;5.30;3.10;;;31.40;47.50;;;;;;10393527;28;20236;-74
2023/06/29 14:47:31;;;;;;;4.43;2.83;;;31.20;47.70;;;;;;10387400;28;20230;-76
2023/06/29 14:52:31;;;;;;;6.57;3.03;;;30.90;48.10;;;;;;10382173;28;20307;-79
2023/06/29 14:57:33;;;;;;;3.67;3.00;;;30.80;48.00;;;;;;10382947;28;20374;-80
2023/06/29 15:02:34;;;;;;;5.97;3.47;;;30.70;47.40;;;;;;10382813;28;20715;-77
2023/06/29 15:07:35;;;;;;;6.90;3.20;;;30.70;47.90;;;;;;10385362;28;20278;-75
2023/06/29 15:12:36;;;;;;;6.67;3.57;;;30.40;48.90;;;;;;10375547;28;20306;-75
2023/06/29 15:17:37;;;;;;;4.77;3.00;;;30.30;49.20;;;;;;10397390;28;20242;-75
2023/06/29 15:22:37;;;;;;;6.40;3.27;;;30.00;49.00;;;;;;10387598;28;20239;-75
2023/06/29 15:27:38;;;;;;;5.67;3.50;;;29.60;49.70;;;;;;10395433;28;20653;-79
2023/06/29 15:32:39;;;;;;;5.07;3.13;;;29.40;50.50;;;;;;10390413;28;20224;-75
2023/06/29 15:37:39;;;;;;;3.30;3.00;;;29.40;51.10;;;;;;10386834;28;20236;-77
2023/06/29 15:42:40;;;;;;;5.10;3.47;;;29.80;49.80;;;;;;10394380;28;20241;-74
2023/06/29 15:47:41;;;;;;;4.43;3.20;;;30.30;49.10;;;;;;10392540;28;20229;-77
2023/06/29 15:52:42;;;;;;;6.23;3.33;;;30.50;48.60;;;;;;10381593;28;20251;-75
2023/06/29 15:57:43;;;;;;;3.87;3.53;;;30.40;49.20;;;;;;10394179;28;20224;-77
2023/06/29 16:02:43;;;;;;;4.43;3.53;;;30.20;49.40;;;;;;10401145;28;20232;-76
2023/06/29 16:07:44;;;;;;;4.40;3.60;;;30.00;49.40;;;;;;10394575;28;20221;-75
2023/06/29 16:12:44;;;;;;;10.33;3.77;;;30.00;49.80;;;;;;10391459;28;20323;-74
2023/06/29 16:17:45;;;;;;;7.27;3.90;;;30.10;50.50;;;;;;10391805;28;20217;-75
2023/06/29 16:22:46;;;;;;;3.63;3.20;;;30.00;50.60;;;;;;10390441;28;20275;-76
2023/06/29 16:27:46;;;;;;;6.10;3.23;;;30.00;50.50;;;;;;10385648;28;21027;-76
2023/06/29 16:32:47;;;;;;;5.13;3.33;;;29.90;50.40;;;;;;10394834;28;20228;-77
2023/06/29 16:37:47;;;;;;;9.97;3.77;;;30.00;50.70;;;;;;10396409;28;20224;-71
2023/06/29 16:42:48;;;;;;;5.87;3.77;;;30.00;50.70;;;;;;10409222;28;20268;-71
2023/06/29 16:47:49;;;;;;;4.53;3.47;;;29.90;50.70;;;;;;10399742;28;20248;-79
2023/06/29 16:52:49;;;;;;;6.40;3.70;;;29.80;51.10;;;;;;10405523;28;20659;-76
2023/06/29 16:57:50;;;;;;;5.40;4.00;;;29.60;51.70;;;;;;10412107;28;20684;-76
2023/06/29 17:02:53;;;;;;;4.47;3.53;;;29.30;52.20;;;;;;10412547;28;20255;-81
2023/06/29 17:07:54;;;;;;;8.20;3.77;;;29.10;52.20;;;;;;10411798;28;20232;-76
2023/06/29 17:12:55;;;;;;;8.50;4.10;;;29.10;52.80;;;;;;10421430;28;20653;-81
2023/06/29 17:17:56;;;;;;;6.17;4.07;;;29.20;52.50;;;;;;10400055;28;20281;-80
2023/06/29 17:22:56;;;;;;;4.97;4.17;;;29.00;52.70;;;;;;10404825;28;20306;-78
2023/06/29 17:27:57;;;;;;;5.93;4.10;;;28.80;53.00;;;;;;10401830;28;20700;-78
2023/06/29 17:33:01;;;;;;;7.40;4.00;;;28.70;53.30;;;;;;10391024;28;20738;-77
2023/06/29 17:38:02;;;;;;;5.97;4.23;;;28.60;53.50;;;;;;10404724;28;20316;-77
2023/06/29 17:43:02;;;;;;;4.90;4.10;;;28.30;53.80;;;;;;10415830;28;20762;-77
2023/06/29 17:48:05;;;;;;;7.27;4.07;;;28.30;54.30;;;;;;10396115;28;20209;-77
2023/06/29 17:53:06;;;;;;;7.10;4.63;;;28.20;54.30;;;;;;10394895;28;20392;-77
2023/06/29 17:58:07;;;;;;;9.80;4.60;;;28.20;54.30;;;;;;10393091;28;20366;-78
2023/06/29 18:03:07;;;;;;;5.97;4.13;;;28.00;54.60;;;;;;10400992;28;20229;-76
2023/06/29 18:08:08;;;;;;;5.63;4.83;;;27.80;55.10;;;;;;10384079;28;20323;-78
2023/06/29 18:13:09;;;;;;;8.20;4.50;;;27.70;55.80;;;;;;10390427;28;20217;-77
2023/06/29 18:18:09;;;;;;;5.80;4.60;;;27.40;56.20;;;;;;10400008;28;20275;-77
2023/06/29 18:23:10;;;;;;;7.87;4.90;;;27.10;57.00;;;;;;10387239;28;20328;-78
2023/06/29 18:28:11;;;;;;;5.20;4.13;;;26.90;58.00;;;;;;10387949;28;20303;-78
2023/06/29 18:33:11;;;;;;;8.30;4.80;;;26.70;58.50;;;;;;10390057;28;20354;-76
2023/06/29 18:38:12;;;;;;;5.80;4.93;;;26.50;59.20;;;;;;10390362;28;20311;-77
2023/06/29 18:43:13;;;;;;;5.33;4.53;;;26.30;59.60;;;;;;10396535;28;20597;-77
2023/06/29 18:48:13;;;;;;;8.07;5.30;;;26.10;60.10;;;;;;10390092;28;20372;-76
2023/06/29 18:53:14;;;;;;;5.63;5.07;;;26.10;60.80;;;;;;10394275;28;20216;-77
2023/06/29 18:58:15;;;;;;;6.70;4.90;;;26.10;60.90;;;;;;10390272;28;20225;-77
2023/06/29 19:03:15;;;;;;;8.50;5.33;;;26.00;61.10;;;;;;10389535;28;20662;-78
2023/06/29 19:08:17;;;;;;;6.83;5.17;;;25.90;61.20;;;;;;10389134;28;20291;-79
2023/06/29 19:13:18;;;;;;;6.57;5.60;;;26.00;61.30;;;;;;10388829;28;20217;-77
2023/06/29 19:18:22;;;;;;;7.03;5.90;;;25.90;61.20;;;;;;10396885;28;20682;-78
2023/06/29 19:23:23;;;;;;;6.83;5.80;;;25.80;61.70;;;;;;10390654;28;20244;-78
2023/06/29 19:28:23;;;;;;;8.37;6.03;;;25.70;62.10;;;;;;10391556;28;20213;-78
2023/06/29 19:33:26;;;;;;;7.90;5.53;;;25.50;62.10;;;;;;10396367;28;20220;-77
2023/06/29 19:38:27;;;;;;;7.37;5.23;;;25.40;62.90;;;;;;10382137;28;20224;-78
2023/06/29 19:43:29;;;;;;;7.33;5.93;;;25.30;63.50;;;;;;10397482;28;20224;-79
2023/06/29 19:48:30;;;;;;;6.83;5.43;;;25.20;64.40;;;;;;10390614;28;20229;-78
2023/06/29 19:53:31;;;;;;;8.27;6.00;;;25.10;65.60;;;;;;10384265;28;20228;-78
2023/06/29 19:58:31;;;;;;;8.23;5.77;;;25.00;65.10;;;;;;10389924;28;20265;-78
2023/06/29 20:03:34;;;;;;;10.10;5.90;;;24.80;65.40;;;;;;10388198;28;20304;-78
2023/06/29 20:08:35;;;;;;;6.07;4.87;;;24.70;66.50;;;;;;10375816;28;20228;-78
2023/06/29 20:13:35;;;;;;;7.53;4.97;;;24.50;67.20;;;;;;10391142;28;20232;-74
2023/06/29 20:18:36;;;;;;;8.17;5.60;;;24.50;67.80;;;;;;10390368;28;20232;-72
2023/06/29 20:23:37;;;;;;;7.23;5.97;;;24.40;68.40;;;;;;10389722;28;20332;-73
2023/06/29 20:28:38;;;;;;;8.53;6.67;;;24.30;68.80;;;;;;10416885;28;20224;-71
2023/06/29 20:33:39;;;;;;;8.77;6.10;;;24.20;69.90;;;;;;10424738;28;20898;-70
2023/06/29 20:38:39;;;;;;;9.30;4.93;;;24.10;70.50;;;;;;10427305;28;20304;-73
2023/06/29 20:43:45;;;;;;;8.23;5.10;;;24.00;70.90;;;;;;10418587;28;20225;-65
2023/06/29 20:48:47;;;;;;;7.50;5.10;;;24.00;71.20;;;;;;10426312;28;20687;-68
2023/06/29 20:53:48;;;;;;;7.73;5.30;;;23.90;72.40;;;;;;10429256;28;20236;-68
2023/06/29 20:58:48;;;;;;;7.90;5.93;;;23.80;72.90;;;;;;10390156;28;20228;-67
2023/06/29 21:03:50;;;;;;;6.87;5.57;;;23.70;73.50;;;;;;10396287;28;20685;-74
2023/06/29 21:08:50;;;;;;;10.43;6.13;;;23.60;74.20;;;;;;10387435;28;20742;-72
2023/06/29 21:13:51;;;;;;;9.53;6.40;;;23.50;74.50;;;;;;10389152;28;20312;-72
2023/06/29 21:18:53;;;;;;;7.93;5.70;;;23.50;75.50;;;;;;10393942;28;20769;-74
2023/06/29 21:23:57;;;;;;;8.23;5.90;;;23.40;76.00;;;;;;10415308;28;20281;-71
2023/06/29 21:29:01;;;;;;;5.90;5.30;;;23.20;76.60;;;;;;10425844;28;20226;-75
2023/06/29 21:34:02;;;;;;;7.03;5.63;;;23.10;77.20;;;;;;10398436;28;20229;-80
2023/06/29 21:39:03;;;;;;;10.10;5.77;;;23.00;77.70;;;;;;10395585;28;20223;-76
2023/06/29 21:44:03;;;;;;;12.07;6.23;;;22.90;78.30;;;;;;10387275;28;20866;-76
2023/06/29 21:49:04;;;;;;;6.87;5.30;;;22.80;78.10;;;;;;10393419;28;20216;-76
2023/06/29 21:54:08;;;;;;;9.20;5.10;;;22.80;78.40;;;;;;10384646;28;20228;-75
2023/06/29 21:59:08;;;;;;;6.43;4.80;;;22.70;78.70;;;;;;10391368;28;20880;-77
2023/06/29 22:04:09;;;;;;;7.23;5.23;;;22.70;79.40;;;;;;10391001;28;20307;-73
2023/06/29 22:09:09;;;;;;;8.73;5.53;;;22.60;80.00;;;;;;10385227;28;20719;-76
2023/06/29 22:14:11;;;;;;;10.43;6.50;;;22.60;80.60;;;;;;10384122;28;20217;-74
2023/06/29 22:19:15;;;;;;;10.50;5.97;;;22.40;81.00;;;;;;10383941;28;20682;-73
2023/06/29 22:24:15;;;;;;;6.27;5.40;;;22.40;81.40;;;;;;10390171;28;20217;-75
2023/06/29 22:29:19;;;;;;;5.83;5.23;;;22.40;81.80;;;;;;10390327;28;20218;-77
2023/06/29 22:34:20;;;;;;;6.67;5.50;;;22.30;81.80;;;;;;10379207;28;20599;-72
2023/06/29 22:39:20;;;;;;;6.13;4.80;;;22.30;82.00;;;;;;10394443;28;20232;-71
2023/06/29 22:44:21;;;;;;;7.70;5.00;;;22.20;82.20;;;;;;10381902;28;20739;-77
2023/06/29 22:49:21;;;;;;;8.20;5.07;;;22.10;82.10;;;;;;10389492;28;20226;-76
2023/06/29 22:54:22;;;;;;;5.17;4.60;;;22.10;82.50;;;;;;10390346;28;20576;-77
2023/06/29 22:59:23;;;;;;;7.53;5.67;;;22.10;82.50;;;;;;10383306;28;20246;-77
2023/06/29 23:04:23;;;;;;;7.27;5.23;;;22.10;82.80;;;;;;10385986;28;20716;-71
2023/06/29 23:09:24;;;;;;;7.00;4.70;;;22.00;82.80;;;;;;10381836;28;20628;-72
2023/06/29 23:14:26;;;;;;;6.23;4.83;;;22.00;82.20;;;;;;10389077;28;20212;-73
2023/06/29 23:19:27;;;;;;;7.20;4.73;;;22.10;82.40;;;;;;10387334;28;20217;-73
2023/06/29 23:24:27;;;;;;;6.67;4.33;;;22.00;82.80;;;;;;10381194;28;20297;-73
2023/06/29 23:29:28;;;;;;;5.97;4.67;;;22.00;82.50;;;;;;10390311;28;20228;-72
2023/06/29 23:34:28;;;;;;;7.03;5.17;;;21.90;82.50;;;;;;10389597;28;20618;-73
2023/06/29 23:39:34;;;;;;;7.67;4.50;;;22.00;82.70;;;;;;10380916;28;20216;-71
2023/06/29 23:44:40;;;;;;;7.80;4.97;;;21.90;82.80;;;;;;10388864;28;20232;-72
2023/06/29 23:49:47;;;;;;;6.07;4.73;;;21.90;82.70;;;;;;10385073;28;20236;-71
2023/06/29 23:54:47;;;;;;;6.10;4.80;;;22.00;82.90;;;;;;10384310;28;20250;-71
2023/06/29 23:59:48;;;;;;;6.37;4.70;;;21.90;83.60;;;;;;10384720;28;20220;-71
